createdAt,value
2023-01-23T00:01:08.434Z,18.70
2023-01-23T00:03:35.253Z,17.83
2023-01-23T00:06:08.453Z,17.17
2023-01-23T00:08:35.830Z,18.05
2023-01-23T00:11:11.648Z,17.70
2023-01-23T00:13:38.829Z,18.17
2023-01-23T00:16:07.573Z,17.00
2023-01-23T00:18:34.427Z,18.63
2023-01-23T00:21:08.510Z,18.25
2023-01-23T00:23:35.400Z,18.90
2023-01-23T00:26:07.372Z,17.83
2023-01-23T00:28:34.716Z,17.58
2023-01-23T00:31:09.227Z,17.85
2023-01-23T00:33:35.980Z,18.40
2023-01-23T00:36:02.716Z,17.63
2023-01-23T00:38:31.716Z,17.75
2023-01-23T00:40:58.417Z,18.85
2023-01-23T00:43:25.803Z,17.42
2023-01-23T00:45:52.442Z,16.23
2023-01-23T00:48:19.178Z,17.50
2023-01-23T00:50:46.193Z,16.75
2023-01-23T00:53:13.223Z,17.25
2023-01-23T00:55:40.714Z,17.30
2023-01-23T00:58:08.506Z,17.25
2023-01-23T01:00:37.156Z,16.13
2023-01-23T01:03:04.752Z,16.50
2023-01-23T01:05:31.552Z,17.55
2023-01-23T01:07:58.307Z,17.15
2023-01-23T01:10:29.340Z,16.50
2023-01-23T01:12:57.566Z,17.77
2023-01-23T01:15:24.807Z,17.42
2023-01-23T01:17:53.777Z,18.27
2023-01-23T01:20:23.674Z,13.10
2023-01-23T01:22:50.917Z,18.42
2023-01-23T01:25:17.955Z,18.33
2023-01-23T01:27:44.978Z,17.10
2023-01-23T01:30:16.336Z,17.60
2023-01-23T01:32:43.402Z,17.75
2023-01-23T01:35:12.042Z,18.33
2023-01-23T01:37:40.897Z,18.30
2023-01-23T01:40:12.841Z,19.02
2023-01-23T01:42:42.292Z,18.38
2023-01-23T01:45:47.347Z,17.25
2023-01-23T01:48:15.379Z,17.05
2023-01-23T01:50:42.393Z,18.42
2023-01-23T01:53:10.667Z,18.02
2023-01-23T01:55:39.533Z,17.75
2023-01-23T01:58:07.288Z,17.58
2023-01-23T02:00:34.010Z,18.55
2023-01-23T02:03:03.492Z,19.25
2023-01-23T02:05:43.050Z,18.52
2023-01-23T02:08:32.289Z,17.88
2023-01-23T02:11:02.114Z,16.85
2023-01-23T02:13:38.726Z,18.77
2023-01-23T02:16:17.862Z,18.20
2023-01-23T02:18:47.997Z,17.30
2023-01-23T02:21:17.631Z,17.25
2023-01-23T02:24:11.890Z,18.40
2023-01-23T02:26:42.329Z,17.88
2023-01-23T02:29:10.438Z,18.65
2023-01-23T02:31:47.076Z,17.83
2023-01-23T02:34:14.744Z,17.67
2023-01-23T02:36:44.944Z,17.45
2023-01-23T02:39:17.232Z,18.42
2023-01-23T02:41:50.375Z,17.95
2023-01-23T02:44:33.484Z,18.02
2023-01-23T02:47:08.659Z,16.88
2023-01-23T02:49:35.289Z,17.85
2023-01-23T02:52:06.020Z,18.13
2023-01-23T02:54:34.761Z,18.80
2023-01-23T02:57:02.121Z,18.88
2023-01-23T02:59:48.816Z,19.67
2023-01-23T03:02:15.793Z,18.35
2023-01-23T03:04:42.459Z,19.27
2023-01-23T03:07:09.027Z,20.00
2023-01-23T03:09:35.747Z,18.63
2023-01-23T03:12:02.921Z,18.35
2023-01-23T03:14:31.725Z,17.95
2023-01-23T03:16:59.101Z,19.95
2023-01-23T03:19:31.272Z,19.38
2023-01-23T03:21:58.817Z,18.30
2023-01-23T03:24:25.541Z,19.45
2023-01-23T03:26:52.470Z,17.35
2023-01-23T03:29:44.616Z,15.90
2023-01-23T03:32:15.202Z,16.70
2023-01-23T03:34:42.845Z,14.93
2023-01-23T03:37:11.569Z,13.50
2023-01-23T03:42:25.602Z,13.68
2023-01-23T03:44:55.485Z,13.80
2023-01-23T03:47:26.427Z,13.75
2023-01-23T03:49:54.244Z,14.20
2023-01-23T03:52:20.929Z,14.75
2023-01-23T03:54:47.727Z,14.65
2023-01-23T03:57:14.333Z,14.30
2023-01-23T04:00:00.116Z,13.57
2023-01-23T04:02:40.781Z,14.57
2023-01-23T04:05:10.917Z,14.15
2023-01-23T04:07:38.392Z,14.07
2023-01-23T04:10:05.381Z,12.75
2023-01-23T04:12:32.123Z,13.32
2023-01-23T04:14:59.634Z,14.13
2023-01-23T04:17:27.188Z,13.68
2023-01-23T04:19:53.773Z,13.30
2023-01-23T04:22:20.474Z,13.98
2023-01-23T04:24:48.321Z,13.63
2023-01-23T04:27:14.888Z,13.68
2023-01-23T04:29:42.220Z,14.73
2023-01-23T04:32:10.149Z,14.48
2023-01-23T04:34:43.175Z,13.02
2023-01-23T04:37:10.093Z,12.95
2023-01-23T04:39:36.759Z,13.82
2023-01-23T04:42:03.510Z,13.85
2023-01-23T04:44:47.054Z,13.30
2023-01-23T04:47:32.439Z,13.93
2023-01-23T04:50:02.968Z,13.98
2023-01-23T04:52:33.374Z,14.32
2023-01-23T04:55:00.195Z,12.90
2023-01-23T04:57:27.123Z,15.02
2023-01-23T05:00:00.774Z,13.60
2023-01-23T05:02:28.852Z,15.25
2023-01-23T05:04:56.332Z,14.95
2023-01-23T05:07:23.198Z,15.65
2023-01-23T05:10:06.720Z,15.00
2023-01-23T05:12:34.799Z,14.95
2023-01-23T05:15:02.915Z,14.18
2023-01-23T05:17:29.890Z,13.98
2023-01-23T05:19:56.484Z,14.80
2023-01-23T05:22:23.225Z,15.45
2023-01-23T05:24:50.465Z,13.75
2023-01-23T05:27:17.170Z,14.88
2023-01-23T05:29:46.977Z,14.38
2023-01-23T05:32:18.875Z,15.07
2023-01-23T05:34:45.996Z,14.18
2023-01-23T05:37:25.435Z,13.93
2023-01-23T05:39:59.278Z,14.52
2023-01-23T05:42:38.026Z,14.73
2023-01-23T05:45:23.434Z,15.60
2023-01-23T05:47:52.435Z,14.88
2023-01-23T05:50:22.639Z,15.57
2023-01-23T05:52:49.460Z,16.00
2023-01-23T05:55:16.156Z,15.88
2023-01-23T05:57:45.854Z,15.88
2023-01-23T06:00:43.970Z,16.08
2023-01-23T06:03:30.854Z,16.20
2023-01-23T06:06:06.693Z,16.67
2023-01-23T06:08:33.515Z,16.38
2023-01-23T06:11:00.409Z,16.38
2023-01-23T06:13:28.355Z,16.83
2023-01-23T06:15:56.992Z,16.05
2023-01-23T06:18:25.625Z,17.27
2023-01-23T06:21:01.232Z,18.63
2023-01-23T06:23:28.767Z,17.50
2023-01-23T06:26:00.548Z,18.17
2023-01-23T06:28:28.417Z,16.90
2023-01-23T06:30:55.697Z,19.40
2023-01-23T06:33:32.442Z,18.45
2023-01-23T06:36:04.903Z,17.95
2023-01-23T06:38:32.618Z,17.45
2023-01-23T06:41:00.792Z,17.88
2023-01-23T06:43:31.533Z,17.33
2023-01-23T06:45:58.165Z,17.73
2023-01-23T06:48:25.223Z,17.85
2023-01-23T06:50:52.352Z,17.98
2023-01-23T06:53:19.399Z,17.60
2023-01-23T06:58:15.793Z,16.40
2023-01-23T07:00:44.515Z,16.40
2023-01-23T07:03:20.828Z,18.13
2023-01-23T07:05:47.554Z,17.25
2023-01-23T07:08:14.425Z,16.25
2023-01-23T07:10:41.632Z,16.45
2023-01-23T07:13:10.075Z,17.13
2023-01-23T07:15:37.667Z,16.57
2023-01-23T07:18:05.650Z,17.10
2023-01-23T07:20:32.398Z,17.00
2023-01-23T07:23:00.610Z,18.52
2023-01-23T07:25:27.323Z,16.10
2023-01-23T07:27:53.842Z,16.95
2023-01-23T07:30:20.611Z,16.23
2023-01-23T07:32:47.734Z,15.60
2023-01-23T07:35:14.376Z,16.05
2023-01-23T07:37:41.110Z,15.10
2023-01-23T07:40:08.344Z,14.90
2023-01-23T07:42:34.962Z,14.27
2023-01-23T07:45:01.828Z,14.00
2023-01-23T07:47:28.412Z,13.88
2023-01-23T07:49:55.102Z,12.75
2023-01-23T07:52:21.730Z,13.30
2023-01-23T07:54:48.269Z,12.52
2023-01-23T07:57:14.951Z,13.40
2023-01-23T07:59:41.503Z,12.52
2023-01-23T08:02:10.676Z,12.60
2023-01-23T08:04:37.671Z,14.43
2023-01-23T08:07:04.562Z,13.90
2023-01-23T08:09:31.176Z,13.63
2023-01-23T08:11:57.813Z,15.00
2023-01-23T08:14:24.338Z,13.75
2023-01-23T08:16:52.313Z,15.30
2023-01-23T08:19:19.731Z,14.80
2023-01-23T08:21:47.021Z,14.30
2023-01-23T08:24:14.404Z,14.00
2023-01-23T08:26:42.122Z,15.20
2023-01-23T08:29:09.501Z,13.27
2023-01-23T08:31:36.177Z,14.77
2023-01-23T08:34:03.031Z,11.88
2023-01-23T08:36:29.631Z,12.63
2023-01-23T08:38:56.402Z,13.52
2023-01-23T08:41:23.515Z,14.43
2023-01-23T08:43:50.698Z,13.75
2023-01-23T08:46:17.531Z,14.07
2023-01-23T08:48:44.385Z,14.02
2023-01-23T08:51:13.356Z,13.88
2023-01-23T08:53:40.968Z,13.75
2023-01-23T08:56:17.021Z,13.48
2023-01-23T08:58:44.715Z,15.38
2023-01-23T09:01:13.258Z,14.43
2023-01-23T09:03:40.043Z,14.10
2023-01-23T09:06:06.836Z,16.27
2023-01-23T09:08:35.340Z,14.88
2023-01-23T09:11:05.151Z,17.02
2023-01-23T09:13:32.778Z,12.77
2023-01-23T09:15:59.548Z,15.85
2023-01-23T09:18:26.696Z,14.25
2023-01-23T09:20:54.176Z,15.10
2023-01-23T09:23:21.531Z,15.10
2023-01-23T09:25:48.129Z,15.68
2023-01-23T09:28:14.920Z,14.50
2023-01-23T09:30:42.300Z,16.33
2023-01-23T09:33:09.309Z,15.38
2023-01-23T09:35:36.139Z,14.60
2023-01-23T09:38:07.000Z,15.48
2023-01-23T09:40:45.735Z,14.65
2023-01-23T09:43:27.128Z,14.67
2023-01-23T09:46:05.775Z,14.63
2023-01-23T09:48:55.728Z,12.50
2023-01-23T09:51:46.761Z,14.85
2023-01-23T09:54:31.094Z,13.73
2023-01-23T09:57:01.611Z,14.95
2023-01-23T09:59:50.157Z,14.77
2023-01-23T10:02:25.192Z,12.57
2023-01-23T10:04:54.115Z,13.40
2023-01-23T10:07:42.505Z,15.02
2023-01-23T10:10:37.103Z,13.85
2023-01-23T10:13:34.806Z,13.00
2023-01-23T10:16:14.975Z,12.70
2023-01-23T10:18:54.326Z,13.35
2023-01-23T10:21:48.219Z,13.75
2023-01-23T10:24:40.806Z,14.07
2023-01-23T10:28:05.755Z,12.05
2023-01-23T10:30:42.455Z,12.75
2023-01-23T10:33:21.472Z,13.07
2023-01-23T10:36:02.430Z,13.73
2023-01-23T10:39:09.361Z,13.85
2023-01-23T10:41:54.377Z,13.88
2023-01-23T10:44:37.677Z,13.38
2023-01-23T10:47:17.758Z,13.70
2023-01-23T10:50:12.679Z,14.85
2023-01-23T10:53:20.174Z,14.60
2023-01-23T10:55:55.213Z,14.00
2023-01-23T10:58:36.676Z,14.00
2023-01-23T11:01:26.831Z,14.38
2023-01-23T11:04:24.141Z,14.52
2023-01-23T11:07:22.739Z,13.70
2023-01-23T11:10:05.031Z,15.95
2023-01-23T11:13:00.957Z,16.95
2023-01-23T11:15:46.580Z,14.23
2023-01-23T11:18:35.063Z,14.07
2023-01-23T11:21:06.815Z,13.60
2023-01-23T11:23:34.588Z,14.45
2023-01-23T11:26:11.055Z,14.80
2023-01-23T11:28:55.669Z,14.60
2023-01-23T11:31:34.740Z,12.70
2023-01-23T11:34:23.323Z,14.30
2023-01-23T11:40:20.406Z,12.93
2023-01-23T11:42:47.442Z,13.43
2023-01-23T11:45:29.153Z,14.02
2023-01-23T11:47:55.708Z,13.77
2023-01-23T11:50:37.148Z,13.32
2023-01-23T11:53:41.517Z,13.75
2023-01-23T11:56:53.976Z,13.93
2023-01-23T11:59:25.851Z,12.85
2023-01-23T12:02:14.246Z,14.07
2023-01-23T12:05:10.757Z,12.93
2023-01-23T12:08:01.740Z,12.27
2023-01-23T12:11:12.198Z,13.30
2023-01-23T12:13:57.868Z,13.38
2023-01-23T12:16:24.568Z,13.75
2023-01-23T12:19:14.171Z,12.93
2023-01-23T12:21:56.027Z,13.05
2023-01-23T12:24:40.523Z,14.25
2023-01-23T12:27:19.488Z,13.50
2023-01-23T12:29:54.624Z,14.45
2023-01-23T12:32:46.358Z,17.73
2023-01-23T12:35:25.061Z,26.10
2023-01-23T12:37:57.722Z,13.57
2023-01-23T12:40:39.751Z,15.30
2023-01-23T12:43:21.688Z,13.93
2023-01-23T12:45:53.134Z,13.85
2023-01-23T12:48:28.484Z,14.02
2023-01-23T12:51:06.111Z,15.18
2023-01-23T12:53:37.383Z,15.25
2023-01-23T12:56:35.394Z,15.13
2023-01-23T12:59:16.122Z,14.38
2023-01-23T13:01:49.022Z,14.15
2023-01-23T13:04:37.371Z,13.73
2023-01-23T13:07:21.114Z,14.52
2023-01-23T13:10:57.594Z,13.93
2023-01-23T13:13:24.688Z,13.68
2023-01-23T13:16:11.326Z,12.98
2023-01-23T13:18:57.444Z,13.90
2023-01-23T13:21:43.166Z,14.25
2023-01-23T13:24:54.926Z,14.25
2023-01-23T13:27:40.033Z,15.10
2023-01-23T13:30:22.437Z,16.35
2023-01-23T13:32:51.522Z,14.75
2023-01-23T13:35:49.324Z,14.88
2023-01-23T13:38:21.902Z,14.82
2023-01-23T13:41:28.086Z,15.40
2023-01-23T13:44:05.356Z,14.63
2023-01-23T13:46:32.160Z,15.32
2023-01-23T14:21:46.415Z,17.65
2023-01-23T14:24:25.210Z,18.08
2023-01-23T14:27:08.525Z,18.33
2023-01-23T14:29:36.093Z,19.23
2023-01-23T14:32:02.839Z,19.45
2023-01-23T14:34:29.543Z,18.60
2023-01-23T14:37:12.292Z,19.95
2023-01-23T14:39:40.993Z,19.45
2023-01-23T14:42:23.717Z,21.25
2023-01-23T14:44:51.159Z,19.13
2023-01-23T14:47:24.864Z,20.75
2023-01-23T14:49:52.295Z,19.60
2023-01-23T14:52:29.013Z,21.08
2023-01-23T14:55:05.827Z,20.83
2023-01-23T14:57:35.389Z,19.60
2023-01-23T15:00:03.707Z,21.08
2023-01-23T15:02:33.635Z,21.33
2023-01-23T15:05:07.483Z,21.10
2023-01-23T15:07:41.916Z,20.95
2023-01-23T15:10:27.826Z,21.52
2023-01-23T15:13:05.160Z,20.92
2023-01-23T15:15:34.536Z,21.90
2023-01-23T15:18:03.472Z,20.85
2023-01-23T15:20:41.177Z,19.88
2023-01-23T15:23:37.319Z,22.25
2023-01-23T15:26:19.372Z,20.75
2023-01-23T15:28:55.291Z,22.00
2023-01-23T15:31:29.889Z,21.02
2023-01-23T15:34:18.122Z,22.83
2023-01-23T15:37:01.657Z,22.80
2023-01-23T15:39:49.403Z,21.85
2023-01-23T15:42:16.036Z,21.65
2023-01-23T15:44:43.721Z,24.23
2023-01-23T15:47:10.888Z,21.45
2023-01-23T15:49:39.574Z,22.15
2023-01-23T15:52:15.602Z,21.77
2023-01-23T15:54:42.402Z,23.38
2023-01-23T15:57:12.287Z,22.83
2023-01-23T15:59:39.202Z,23.85
2023-01-23T16:02:11.006Z,22.05
2023-01-23T16:04:41.793Z,22.17
2023-01-23T16:07:17.752Z,22.10
2023-01-23T16:09:47.459Z,22.83
2023-01-23T16:14:43.890Z,22.58
2023-01-23T16:17:16.716Z,23.38
2023-01-23T16:19:44.314Z,22.60
2023-01-23T16:22:17.902Z,24.25
2023-01-23T16:24:44.829Z,23.58
2023-01-23T16:27:18.053Z,21.92
2023-01-23T16:29:45.470Z,21.75
2023-01-23T16:32:12.287Z,22.13
2023-01-23T16:34:39.258Z,22.27
2023-01-23T16:37:13.425Z,24.75
2023-01-23T16:39:41.646Z,28.15
2023-01-23T16:42:18.542Z,26.52
2023-01-23T16:44:45.210Z,26.27
2023-01-23T16:47:11.857Z,28.45
2023-01-23T16:49:51.536Z,27.23
2023-01-23T16:52:20.711Z,24.50
2023-01-23T16:54:47.417Z,23.48
2023-01-23T16:57:19.797Z,22.13
2023-01-23T16:59:48.222Z,24.00
2023-01-23T17:02:42.327Z,22.50
2023-01-23T17:05:12.269Z,22.50
2023-01-23T17:07:39.745Z,24.00
2023-01-23T17:10:06.773Z,24.38
2023-01-23T17:12:36.010Z,26.08
2023-01-23T17:15:04.379Z,22.17
2023-01-23T17:17:35.945Z,25.80
2023-01-23T17:20:05.646Z,22.95
2023-01-23T17:22:40.573Z,23.63
2023-01-23T17:25:24.913Z,23.27
2023-01-23T17:28:11.185Z,22.92
2023-01-23T17:30:40.395Z,23.77
2023-01-23T17:33:19.609Z,24.20
2023-01-23T17:35:47.367Z,23.63
2023-01-23T17:38:25.997Z,25.25
2023-01-23T17:40:53.636Z,23.42
2023-01-23T17:43:21.383Z,22.80
2023-01-23T17:45:50.796Z,23.38
2023-01-23T17:48:27.396Z,27.17
2023-01-23T17:50:54.583Z,25.73
2023-01-23T17:53:21.434Z,23.35
2023-01-23T17:55:52.953Z,23.40
2023-01-23T17:58:20.377Z,23.13
2023-01-23T18:00:50.833Z,22.80
2023-01-23T18:03:22.178Z,23.80
2023-01-23T18:05:49.194Z,23.58
2023-01-23T18:08:21.817Z,24.50
2023-01-23T18:10:52.248Z,23.48
2023-01-23T18:13:28.128Z,24.60
2023-01-23T18:16:13.602Z,24.60
2023-01-23T18:18:42.776Z,23.05
2023-01-23T18:21:15.382Z,23.00
2023-01-23T18:23:43.431Z,25.55
2023-01-23T18:26:22.864Z,26.90
2023-01-23T18:28:55.963Z,25.13
2023-01-23T18:31:36.770Z,20.98
2023-01-23T18:34:41.143Z,25.00
2023-01-23T18:37:35.802Z,22.95
2023-01-23T18:40:13.236Z,25.45
2023-01-23T18:42:59.328Z,25.13
2023-01-23T18:45:27.579Z,23.75
2023-01-23T18:47:55.769Z,21.98
2023-01-23T18:50:25.539Z,23.13
2023-01-23T18:53:09.711Z,21.63
2023-01-23T18:55:45.658Z,21.63
2023-01-23T18:58:30.889Z,21.20
2023-01-23T19:01:34.735Z,21.08
2023-01-23T19:04:01.817Z,20.98
2023-01-23T19:06:33.338Z,19.52
2023-01-23T19:09:01.280Z,19.60
2023-01-23T19:11:53.413Z,20.42
2023-01-23T19:14:51.343Z,21.30
2023-01-23T19:17:31.455Z,21.13
2023-01-23T19:20:32.927Z,20.88
2023-01-23T19:23:37.765Z,21.75
2023-01-23T19:26:05.892Z,26.02
2023-01-23T19:28:32.829Z,26.55
2023-01-23T19:31:00.074Z,24.45
2023-01-23T19:33:26.787Z,23.33
2023-01-23T19:35:56.558Z,23.77
2023-01-23T19:38:23.625Z,23.45
2023-01-23T19:40:50.470Z,24.67
2023-01-23T19:43:18.212Z,23.00
2023-01-23T19:45:46.384Z,24.65
2023-01-23T19:48:13.368Z,23.77
2023-01-23T19:50:40.316Z,25.20
2023-01-23T19:53:07.213Z,25.70
2023-01-23T19:55:36.222Z,24.20
2023-01-23T19:58:02.834Z,20.35
2023-01-23T20:00:32.276Z,22.80
2023-01-23T20:02:59.851Z,22.33
2023-01-23T20:05:26.874Z,25.58
2023-01-23T20:07:54.467Z,25.23
2023-01-23T20:10:21.995Z,26.35
2023-01-23T20:12:52.129Z,26.60
2023-01-23T20:15:24.073Z,26.77
2023-01-23T20:17:52.251Z,23.63
2023-01-23T20:20:19.947Z,23.20
2023-01-23T20:22:46.847Z,21.45
2023-01-23T20:25:16.532Z,23.35
2023-01-23T20:27:44.031Z,23.88
2023-01-23T20:30:19.716Z,23.90
2023-01-23T20:32:46.849Z,21.98
2023-01-23T20:35:13.535Z,23.58
2023-01-23T20:37:40.189Z,22.02
2023-01-23T20:40:11.859Z,21.75
2023-01-23T20:42:39.526Z,23.15
2023-01-23T20:45:07.483Z,20.80
2023-01-23T20:47:36.191Z,21.60
2023-01-23T20:50:03.754Z,23.27
2023-01-23T20:52:49.515Z,21.35
2023-01-23T20:55:16.086Z,22.48
2023-01-23T20:58:01.279Z,21.83
2023-01-23T21:00:27.877Z,22.42
2023-01-23T21:02:55.762Z,21.33
2023-01-23T21:05:22.746Z,18.90
2023-01-23T21:07:49.690Z,20.90
2023-01-23T21:10:16.344Z,19.75
2023-01-23T21:12:43.063Z,20.58
2023-01-23T21:15:10.172Z,20.33
2023-01-23T21:17:36.694Z,20.23
2023-01-23T21:20:03.468Z,21.73
2023-01-23T21:22:30.140Z,19.95
2023-01-23T21:24:56.739Z,19.48
2023-01-23T21:27:25.186Z,19.83
2023-01-23T21:29:52.595Z,19.50
2023-01-23T21:32:21.077Z,19.58
2023-01-23T21:34:47.754Z,19.50
2023-01-23T21:37:14.326Z,19.45
2023-01-23T21:39:40.960Z,19.30
2023-01-23T21:42:07.530Z,20.52
2023-01-23T21:44:35.720Z,20.90
2023-01-23T21:47:02.952Z,19.38
2023-01-23T21:49:31.361Z,20.08
2023-01-23T21:51:57.984Z,19.10
2023-01-23T21:54:24.618Z,19.85
2023-01-23T21:56:51.154Z,19.80
2023-01-23T21:59:17.867Z,20.38
2023-01-23T22:01:45.700Z,19.65
2023-01-23T22:04:13.943Z,19.50
2023-01-23T22:06:42.485Z,18.67
2023-01-23T22:09:10.590Z,19.55
2023-01-23T22:11:37.337Z,19.98
2023-01-23T22:14:04.509Z,18.50
2023-01-23T22:16:47.359Z,20.23
2023-01-23T22:19:16.933Z,21.45
2023-01-23T22:21:44.355Z,18.75
2023-01-23T22:24:11.122Z,18.90
2023-01-23T22:26:37.777Z,18.98
2023-01-23T22:29:04.339Z,18.63
2023-01-23T22:31:31.011Z,18.35
2023-01-23T22:33:57.586Z,18.63
2023-01-23T22:36:24.353Z,17.52
2023-01-23T22:38:55.340Z,18.52
2023-01-23T22:41:22.985Z,18.33
2023-01-23T22:43:59.147Z,17.80
2023-01-23T22:46:26.652Z,16.75
2023-01-23T22:48:53.474Z,16.63
2023-01-23T22:51:24.387Z,15.75
2023-01-23T22:53:51.783Z,16.55
2023-01-23T22:56:18.404Z,14.63
2023-01-23T22:58:46.761Z,15.20
2023-01-23T23:01:13.636Z,14.80
2023-01-23T23:03:40.819Z,12.88
2023-01-23T23:06:10.751Z,13.77
2023-01-23T23:08:37.629Z,10.98
2023-01-23T23:11:13.315Z,12.02
2023-01-23T23:13:40.845Z,12.65
2023-01-23T23:16:17.731Z,10.00
2023-01-23T23:18:49.229Z,12.07
2023-01-23T23:21:21.020Z,12.32
2023-01-23T23:23:48.326Z,10.95
2023-01-23T23:26:16.054Z,12.82
2023-01-23T23:28:43.181Z,12.25
2023-01-23T23:31:10.048Z,11.77
2023-01-23T23:33:37.316Z,11.70
2023-01-23T23:36:04.277Z,11.95
2023-01-23T23:38:30.931Z,12.18
2023-01-23T23:41:03.117Z,12.20
2023-01-23T23:43:30.083Z,9.98
2023-01-23T23:46:00.032Z,11.35
2023-01-23T23:48:27.777Z,10.52
2023-01-23T23:50:55.093Z,11.13
2023-01-23T23:53:22.869Z,10.55
2023-01-23T23:55:49.703Z,10.40
2023-01-23T23:58:16.645Z,10.35
